Time;durP1;ratioP1;P1;durP2;ratioP2;P2;SDS_P1;SDS_P2;PMS_P1;PMS_P2;Temp;Humidity;BMP_temperature;BMP_pressure;BME280_temperature;BME280_humidity;BME280_pressure;Samples;Min_cycle;Max_cycle;Signal;HPM_P1;HPM_P2
2022/01/01 00:02:16;;;;;;;;;;;;;;;;;;;;;
2022/01/01 00:04:43;;;;;;;45.65;17.52;;;11.10;97.20;;;;;;4945520;29;20033;-88
2022/01/01 00:07:09;;;;;;;39.95;15.30;;;11.10;97.20;;;;;;4947785;29;20035;-87
2022/01/01 00:09:37;;;;;;;31.17;14.85;;;11.10;97.20;;;;;;4949898;28;20035;-86
2022/01/01 00:12:06;;;;;;;32.55;13.57;;;11.20;97.30;;;;;;4948911;29;20471;-86
2022/01/01 00:14:34;;;;;;;40.90;13.50;;;11.20;97.30;;;;;;4947013;29;20027;-86
2022/01/01 00:17:00;;;;;;;27.05;14.18;;;11.10;97.30;;;;;;4963102;28;20065;-86
2022/01/01 00:19:25;;;;;;;32.38;13.45;;;11.10;97.40;;;;;;4958992;28;20090;-86
2022/01/01 00:22:14;;;;;;;31.40;13.82;;;11.10;97.50;;;;;;4964806;28;20027;-89
2022/01/01 00:24:40;;;;;;;38.40;14.38;;;11.10;97.50;;;;;;4945235;28;20066;-89
2022/01/01 00:27:05;;;;;;;26.20;12.20;;;11.10;97.40;;;;;;4962251;28;20058;-89
2022/01/01 00:29:31;;;;;;;32.80;13.15;;;11.10;97.40;;;;;;4948096;29;20037;-89
2022/01/01 00:31:56;;;;;;;33.05;13.73;;;11.10;97.40;;;;;;4960095;28;20448;-89
2022/01/01 00:34:22;;;;;;;29.00;13.13;;;11.10;97.40;;;;;;4947541;29;20023;-89
2022/01/01 00:36:47;;;;;;;37.33;13.82;;;11.10;97.50;;;;;;4953146;28;20945;-89
2022/01/01 00:39:13;;;;;;;30.83;13.27;;;11.10;97.50;;;;;;4934314;29;20035;-89
2022/01/01 00:41:39;;;;;;;34.50;15.45;;;11.10;97.50;;;;;;4963837;28;20181;-89
2022/01/01 00:44:05;;;;;;;38.22;15.27;;;11.10;97.50;;;;;;4952187;28;20047;-88
2022/01/01 00:46:30;;;;;;;36.67;15.95;;;11.10;97.50;;;;;;4941076;28;20491;-89
2022/01/01 00:48:56;;;;;;;39.00;16.05;;;11.10;97.60;;;;;;4946959;29;20039;-89
2022/01/01 00:51:22;;;;;;;36.83;15.65;;;11.10;97.50;;;;;;4960633;28;20028;-89
2022/01/01 00:53:48;;;;;;;35.95;15.93;;;11.10;97.50;;;;;;4960225;28;20031;-89
2022/01/01 00:56:13;;;;;;;30.30;13.82;;;11.10;97.50;;;;;;4961808;28;20034;-89
2022/01/01 00:58:39;;;;;;;30.27;14.30;;;11.10;97.50;;;;;;4945318;29;20031;-89
2022/01/01 01:01:05;;;;;;;34.92;15.10;;;11.10;97.50;;;;;;4964453;28;20046;-89
2022/01/01 01:03:31;;;;;;;38.58;14.23;;;11.10;97.40;;;;;;4964354;28;20019;-89
2022/01/01 01:05:59;;;;;;;32.08;14.73;;;11.10;97.40;;;;;;4963889;28;20050;-89
2022/01/01 01:08:25;;;;;;;35.20;14.85;;;11.00;97.40;;;;;;4944737;29;20027;-89
2022/01/01 01:10:52;;;;;;;31.23;15.23;;;11.00;97.40;;;;;;4950567;28;20042;-89
2022/01/01 01:13:19;;;;;;;34.35;14.90;;;11.00;97.40;;;;;;4961816;28;20035;-89
2022/01/01 01:15:44;;;;;;;42.42;15.90;;;11.00;97.40;;;;;;4958533;28;20126;-89
2022/01/01 01:18:11;;;;;;;40.97;15.32;;;11.00;97.40;;;;;;4961792;28;20975;-89
2022/01/01 01:20:40;;;;;;;38.85;15.60;;;11.00;97.40;;;;;;4943452;28;20475;-89
2022/01/01 01:23:08;;;;;;;37.60;16.73;;;11.00;97.40;;;;;;4961495;28;20463;-89
2022/01/01 01:25:40;;;;;;;41.17;16.40;;;11.10;97.40;;;;;;4964674;28;20027;-89
2022/01/01 01:31:18;;;;;;;46.50;17.45;;;11.00;97.40;;;;;;4950933;28;20384;-90
2022/01/01 01:34:22;;;;;;;40.42;16.42;;;11.10;97.40;;;;;;4947674;29;20086;-89
2022/01/01 01:37:00;;;;;;;37.90;15.20;;;11.10;97.30;;;;;;4962008;28;20059;-89
2022/01/01 01:39:25;;;;;;;35.45;16.50;;;11.10;97.20;;;;;;4952411;29;20028;-89
2022/01/01 01:41:53;;;;;;;36.47;16.88;;;11.10;97.30;;;;;;4953197;29;20035;-89
2022/01/01 01:44:26;;;;;;;36.22;17.30;;;11.10;97.30;;;;;;4947470;28;20082;-89
2022/01/01 01:46:52;;;;;;;36.70;15.85;;;11.00;97.20;;;;;;4952804;28;20479;-90
2022/01/01 01:49:18;;;;;;;38.80;16.45;;;11.10;97.40;;;;;;4963545;28;20078;-90
2022/01/01 01:51:44;;;;;;;38.72;16.20;;;11.10;97.30;;;;;;4949258;29;20035;-90
2022/01/01 01:54:10;;;;;;;32.72;15.73;;;11.10;97.20;;;;;;4966757;28;20475;-90
2022/01/01 01:56:38;;;;;;;39.35;15.98;;;11.10;97.10;;;;;;4964193;28;20479;-90
2022/01/01 01:59:06;;;;;;;31.83;14.07;;;11.10;97.00;;;;;;4968281;28;20542;-90
2022/01/01 02:01:31;;;;;;;38.17;16.25;;;11.20;96.90;;;;;;4966261;28;20027;-89
2022/01/01 02:03:58;;;;;;;37.13;15.93;;;11.10;96.80;;;;;;4949050;29;20031;-90
2022/01/01 02:06:24;;;;;;;35.72;14.45;;;11.20;96.80;;;;;;4952384;29;20383;-89
2022/01/01 02:08:51;;;;;;;33.58;16.63;;;11.10;96.80;;;;;;4966716;28;20042;-90
2022/01/01 02:11:22;;;;;;;37.58;16.52;;;11.10;96.80;;;;;;4968358;28;20523;-90
2022/01/01 02:14:03;;;;;;;35.70;15.38;;;11.10;96.70;;;;;;4964055;28;20618;-90
2022/01/01 02:16:39;;;;;;;;;;;11.10;96.70;;;;;;4962007;28;20057;-89
2022/01/01 02:19:05;;;;;;;32.83;14.32;;;11.10;96.70;;;;;;4962157;28;20005;-90
2022/01/01 02:21:30;;;;;;;37.17;16.52;;;11.10;96.90;;;;;;4953393;29;20070;-89
2022/01/01 02:23:58;;;;;;;43.55;16.67;;;11.10;96.90;;;;;;4968457;28;20062;-90
2022/01/01 02:26:34;;;;;;;28.35;15.55;;;11.10;96.80;;;;;;4953413;28;20554;-90
2022/01/01 02:29:00;;;;;;;47.42;18.25;;;11.10;96.90;;;;;;4962249;28;20038;-89
2022/01/01 02:31:26;;;;;;;43.75;18.98;;;11.10;96.90;;;;;;4952300;28;20507;-89
2022/01/01 02:33:51;;;;;;;40.47;17.52;;;11.10;96.90;;;;;;4966993;28;20046;-90
2022/01/01 02:36:34;;;;;;;38.42;17.40;;;11.10;96.80;;;;;;4965174;28;20024;-90
2022/01/01 02:39:02;;;;;;;36.67;16.30;;;11.20;96.70;;;;;;4951443;28;20476;-90
2022/01/01 02:41:28;;;;;;;33.92;15.75;;;11.20;96.60;;;;;;4952601;28;20023;-90
2022/01/01 02:43:54;;;;;;;42.50;17.13;;;11.20;96.60;;;;;;4953299;29;20498;-90
2022/01/01 02:46:19;;;;;;;36.15;16.48;;;11.10;96.50;;;;;;4967186;28;20023;-90
2022/01/01 02:48:45;;;;;;;40.08;17.35;;;11.10;96.60;;;;;;4964057;28;20091;-90
2022/01/01 02:51:11;;;;;;;35.53;17.30;;;11.10;96.50;;;;;;4950977;29;20027;-90
2022/01/01 02:53:40;;;;;;;32.13;15.05;;;11.20;96.50;;;;;;4949565;28;20234;-89
2022/01/01 02:56:05;;;;;;;38.17;15.85;;;11.20;96.50;;;;;;4963460;28;20134;-90
2022/01/01 02:58:31;;;;;;;41.80;16.85;;;11.10;96.40;;;;;;4959520;28;20119;-89
2022/01/01 03:00:57;;;;;;;40.20;17.08;;;11.10;96.40;;;;;;4949771;28;20023;-89
2022/01/01 03:03:22;;;;;;;30.33;15.77;;;11.10;96.40;;;;;;4969471;28;20027;-89
2022/01/01 03:05:47;;;;;;;32.17;16.00;;;11.20;96.40;;;;;;4966947;28;20027;-89
2022/01/01 03:08:13;;;;;;;37.03;15.60;;;11.20;96.30;;;;;;4965233;28;20114;-90
2022/01/01 03:10:39;;;;;;;33.88;15.43;;;11.20;96.20;;;;;;4951163;28;20033;-90
2022/01/01 03:13:04;;;;;;;35.60;16.80;;;11.20;96.20;;;;;;4965032;28;20373;-89
2022/01/01 03:15:30;;;;;;;35.92;14.70;;;11.10;96.20;;;;;;4947052;29;20231;-90
2022/01/01 03:17:56;;;;;;;32.65;14.90;;;11.20;96.20;;;;;;4967896;28;20027;-89
2022/01/01 03:20:22;;;;;;;37.47;15.77;;;11.20;96.10;;;;;;4948187;28;20468;-90
2022/01/01 03:22:47;;;;;;;29.25;14.10;;;11.20;96.10;;;;;;4962889;28;20038;-90
2022/01/01 03:25:13;;;;;;;30.00;14.25;;;11.20;96.10;;;;;;4951556;28;20015;-90
2022/01/01 03:27:38;;;;;;;40.67;15.88;;;11.20;96.00;;;;;;4966741;28;20071;-90
2022/01/01 03:30:05;;;;;;;35.53;15.32;;;11.10;96.10;;;;;;4966785;28;20098;-89
2022/01/01 03:32:30;;;;;;;32.15;15.75;;;11.20;96.10;;;;;;4967732;28;20637;-90
2022/01/01 03:34:56;;;;;;;36.00;13.43;;;11.10;96.10;;;;;;4964893;28;20118;-89
2022/01/01 03:37:22;;;;;;;33.50;15.98;;;11.20;96.00;;;;;;4949613;28;20027;-90
2022/01/01 03:39:48;;;;;;;39.22;15.52;;;11.20;95.80;;;;;;4963304;28;20512;-90
2022/01/01 03:42:13;;;;;;;40.42;15.60;;;11.20;95.80;;;;;;4950654;29;20202;-90
2022/01/01 03:44:39;;;;;;;34.60;15.88;;;11.20;95.90;;;;;;4959462;28;20114;-90
2022/01/01 03:47:09;;;;;;;34.65;15.93;;;11.10;95.90;;;;;;4948270;28;20199;-89
2022/01/01 03:49:39;;;;;;;38.20;15.68;;;11.10;96.00;;;;;;4963507;28;20042;-90
2022/01/01 03:52:04;;;;;;;33.90;15.40;;;11.10;96.00;;;;;;4953172;28;20031;-89
2022/01/01 03:54:30;;;;;;;30.65;14.10;;;11.10;96.00;;;;;;4944687;28;20041;-89
2022/01/01 03:56:56;;;;;;;37.75;15.48;;;11.10;95.80;;;;;;4948398;28;20032;-89
2022/01/01 03:59:21;;;;;;;31.35;14.98;;;11.10;95.80;;;;;;4958748;28;20045;-90
2022/01/01 04:01:47;;;;;;;34.55;14.23;;;11.10;95.90;;;;;;4965279;28;20090;-89
2022/01/01 04:04:13;;;;;;;30.90;15.23;;;11.10;95.90;;;;;;4947678;29;20023;-89
2022/01/01 04:06:38;;;;;;;35.10;15.65;;;11.10;96.00;;;;;;4963625;28;20032;-89
2022/01/01 04:09:04;;;;;;;27.05;14.35;;;11.20;95.80;;;;;;4964846;28;20047;-89
2022/01/01 04:11:30;;;;;;;36.95;15.63;;;11.20;95.60;;;;;;4962165;28;20427;-89
2022/01/01 04:13:55;;;;;;;35.17;15.00;;;11.20;95.50;;;;;;4952255;29;20043;-90
2022/01/01 04:16:22;;;;;;;30.90;14.23;;;11.20;95.50;;;;;;4963725;28;20038;-90
2022/01/01 04:18:48;;;;;;;40.03;15.52;;;11.10;95.60;;;;;;4961237;28;20042;-90
2022/01/01 04:21:14;;;;;;;33.65;15.40;;;11.10;95.70;;;;;;4949547;29;20035;-89
2022/01/01 04:23:42;;;;;;;38.13;17.35;;;11.10;95.90;;;;;;4950201;29;20364;-90
2022/01/01 04:26:08;;;;;;;39.67;18.25;;;11.10;95.90;;;;;;4964064;28;20024;-89
2022/01/01 04:28:34;;;;;;;35.22;14.35;;;11.10;95.90;;;;;;4965179;28;20383;-90
2022/01/01 04:31:00;;;;;;;42.58;15.80;;;11.10;95.80;;;;;;4963192;28;20031;-90
2022/01/01 04:33:25;;;;;;;39.92;15.85;;;11.10;95.80;;;;;;4948027;28;20382;-89
2022/01/01 04:35:51;;;;;;;36.08;15.20;;;11.10;95.70;;;;;;4961780;28;20095;-89
2022/01/01 04:38:49;;;;;;;38.17;15.73;;;11.10;95.90;;;;;;4963339;28;20028;-90
2022/01/01 04:41:15;;;;;;;42.85;16.52;;;11.10;95.90;;;;;;4950213;28;20073;-90
2022/01/01 04:43:43;;;;;;;35.50;17.35;;;11.10;95.80;;;;;;4949686;28;20066;-90
2022/01/01 04:46:10;;;;;;;37.30;16.77;;;11.10;95.80;;;;;;4959318;28;20502;-90
2022/01/01 04:48:37;;;;;;;37.63;16.52;;;11.10;95.80;;;;;;4965544;28;20035;-90
2022/01/01 04:51:06;;;;;;;37.42;16.52;;;11.10;95.80;;;;;;4948380;28;20031;-90
2022/01/01 04:53:31;;;;;;;39.47;17.45;;;11.10;95.90;;;;;;4939764;29;20114;-90
2022/01/01 04:55:59;;;;;;;36.45;17.27;;;11.10;95.90;;;;;;4948289;28;20123;-90
2022/01/01 04:58:24;;;;;;;35.05;16.92;;;11.10;95.90;;;;;;4948218;28;20031;-90
2022/01/01 05:00:50;;;;;;;34.30;16.33;;;11.10;95.90;;;;;;4961922;28;20537;-90
2022/01/01 05:03:15;;;;;;;42.17;17.70;;;11.10;95.90;;;;;;4966055;28;20027;-90
2022/01/01 05:05:43;;;;;;;31.00;14.75;;;11.10;95.80;;;;;;4963985;28;20031;-90
2022/01/01 05:08:09;;;;;;;43.17;16.98;;;11.10;95.90;;;;;;4966386;28;20024;-90
2022/01/01 05:10:35;;;;;;;34.47;15.98;;;11.10;95.90;;;;;;4968603;28;20038;-89
2022/01/01 05:13:01;;;;;;;39.47;16.33;;;11.10;95.70;;;;;;4950192;29;20031;-90
2022/01/01 05:15:26;;;;;;;35.22;15.05;;;11.10;95.60;;;;;;4950549;28;20050;-90
2022/01/01 05:17:52;;;;;;;38.65;15.43;;;11.10;95.60;;;;;;4952214;28;20491;-89
2022/01/01 05:20:17;;;;;;;38.30;15.77;;;11.10;95.60;;;;;;4962467;28;20031;-89
2022/01/01 05:22:43;;;;;;;33.92;14.38;;;11.10;95.60;;;;;;4967547;28;20027;-89
2022/01/01 05:25:09;;;;;;;34.60;14.43;;;11.10;95.60;;;;;;4967146;28;20489;-89
2022/01/01 05:27:36;;;;;;;37.35;15.55;;;11.10;95.50;;;;;;4969954;28;20675;-89
2022/01/01 05:30:06;;;;;;;32.25;14.20;;;11.10;95.50;;;;;;4952135;29;20031;-89
2022/01/01 05:32:32;;;;;;;32.22;15.07;;;11.10;95.20;;;;;;4964273;28;20531;-89
2022/01/01 05:34:58;;;;;;;37.20;14.20;;;11.10;95.10;;;;;;4967208;28;20031;-89
2022/01/01 05:37:24;;;;;;;34.35;12.63;;;11.10;95.20;;;;;;4965625;28;20027;-89
2022/01/01 05:39:50;;;;;;;32.83;13.70;;;11.00;95.20;;;;;;4951413;29;20538;-89
2022/01/01 05:42:15;;;;;;;30.85;13.98;;;11.10;95.00;;;;;;4965725;28;20034;-88
2022/01/01 05:44:41;;;;;;;27.50;13.07;;;11.10;94.90;;;;;;4964986;28;20031;-88
2022/01/01 05:47:06;;;;;;;34.53;13.52;;;11.00;94.90;;;;;;4950664;28;20475;-88
2022/01/01 05:49:32;;;;;;;36.08;14.18;;;11.10;94.90;;;;;;4965615;28;20379;-89
2022/01/01 05:51:57;;;;;;;32.30;12.95;;;11.00;94.90;;;;;;4951212;28;20390;-89
2022/01/01 05:54:23;;;;;;;31.88;13.48;;;11.00;95.00;;;;;;4966832;28;20027;-89
2022/01/01 05:56:49;;;;;;;31.58;13.27;;;11.00;95.10;;;;;;4966289;28;20039;-88
2022/01/01 05:59:17;;;;;;;32.10;13.18;;;11.00;95.30;;;;;;4963096;28;20028;-88
2022/01/01 06:01:43;;;;;;;33.35;13.25;;;11.00;95.20;;;;;;4948610;28;20074;-88
2022/01/01 06:04:08;;;;;;;31.65;12.68;;;11.00;95.10;;;;;;4964525;28;20059;-89
2022/01/01 06:06:34;;;;;;;27.98;12.20;;;11.00;94.90;;;;;;4966847;28;20073;-89
2022/01/01 06:08:59;;;;;;;28.88;10.57;;;11.00;95.00;;;;;;4951205;29;20081;-89
2022/01/01 06:11:25;;;;;;;35.25;12.68;;;11.00;95.00;;;;;;4947481;28;20400;-89
2022/01/01 06:13:51;;;;;;;32.40;12.38;;;11.00;95.10;;;;;;4967366;28;20427;-89
2022/01/01 06:16:16;;;;;;;30.75;12.70;;;10.90;95.20;;;;;;4949815;28;20081;-89
2022/01/01 06:18:42;;;;;;;34.72;13.52;;;10.90;95.30;;;;;;4948606;28;20399;-89
2022/01/01 06:21:08;;;;;;;43.78;13.52;;;10.90;95.40;;;;;;4963886;28;20030;-88
2022/01/01 06:23:37;;;;;;;39.60;14.07;;;10.90;95.50;;;;;;4947844;28;20700;-89
2022/01/01 06:26:03;;;;;;;37.25;13.88;;;10.90;95.50;;;;;;4965883;28;20028;-89
2022/01/01 06:28:38;;;;;;;41.92;15.73;;;11.00;95.60;;;;;;4949549;29;20113;-88
2022/01/01 06:31:03;;;;;;;36.53;15.15;;;11.00;95.50;;;;;;4952021;29;20027;-89
2022/01/01 06:33:29;;;;;;;33.47;15.13;;;10.90;95.60;;;;;;4951472;28;20038;-89
2022/01/01 06:35:58;;;;;;;34.90;15.88;;;10.90;95.70;;;;;;4961945;28;20384;-89
2022/01/01 06:38:23;;;;;;;37.55;15.13;;;11.00;95.80;;;;;;4965913;28;20492;-89
2022/01/01 06:40:49;;;;;;;39.33;16.67;;;10.90;95.80;;;;;;4965499;28;20066;-89
2022/01/01 06:43:16;;;;;;;39.45;17.08;;;11.00;95.70;;;;;;4962318;28;20038;-89
2022/01/01 06:45:43;;;;;;;46.50;17.95;;;11.00;95.80;;;;;;4965420;28;20495;-89
2022/01/01 06:48:09;;;;;;;42.30;18.08;;;10.90;96.00;;;;;;4951276;29;20079;-89
2022/01/01 06:50:37;;;;;;;47.92;19.60;;;10.90;96.00;;;;;;4961015;28;20623;-89
2022/01/01 06:53:02;;;;;;;41.13;18.90;;;10.90;96.00;;;;;;4952341;28;20185;-89
2022/01/01 06:55:28;;;;;;;49.55;20.13;;;10.90;96.00;;;;;;4962037;28;20110;-89
2022/01/01 06:57:54;;;;;;;48.22;19.45;;;10.90;96.00;;;;;;4952951;28;20046;-89
2022/01/01 07:00:19;;;;;;;51.40;22.02;;;10.90;96.00;;;;;;4962158;28;20026;-89
2022/01/01 07:02:47;;;;;;;54.75;22.00;;;10.90;96.10;;;;;;4967679;28;20090;-89
2022/01/01 07:05:14;;;;;;;56.40;21.35;;;10.90;96.10;;;;;;4948614;29;20502;-89
2022/01/01 07:07:40;;;;;;;55.50;21.42;;;10.90;96.10;;;;;;4950572;28;20026;-89
2022/01/01 07:10:08;;;;;;;54.28;21.83;;;10.90;96.20;;;;;;4949765;28;20023;-89
2022/01/01 07:12:35;;;;;;;63.58;23.73;;;10.90;96.20;;;;;;4948556;29;20031;-89
2022/01/01 07:15:01;;;;;;;55.53;22.55;;;10.80;96.20;;;;;;4963416;28;20031;-89
2022/01/01 07:17:26;;;;;;;53.53;23.60;;;10.80;96.30;;;;;;4968445;28;20034;-88
2022/01/01 07:19:52;;;;;;;53.63;24.05;;;10.80;96.40;;;;;;4949116;29;20047;-89
2022/01/01 07:22:18;;;;;;;53.17;23.55;;;10.80;96.40;;;;;;4966339;28;20039;-88
2022/01/01 07:24:44;;;;;;;61.38;25.98;;;10.80;96.40;;;;;;4949643;29;20026;-89
2022/01/01 07:27:37;;;;;;;;;;;;;;;;;;;;;
2022/01/01 07:30:06;;;;;;;59.65;26.13;;;10.90;96.50;;;;;;4949953;28;20035;-89
2022/01/01 07:32:32;;;;;;;66.63;27.08;;;10.90;96.40;;;;;;4967624;28;20078;-89
2022/01/01 07:35:07;;;;;;;62.70;26.33;;;10.90;96.30;;;;;;4965179;28;20483;-88
2022/01/01 07:37:42;;;;;;;63.85;26.92;;;11.00;96.30;;;;;;4961549;28;20483;-89
2022/01/01 07:40:11;;;;;;;63.10;26.33;;;10.90;96.30;;;;;;4946539;29;20137;-89
2022/01/01 07:42:37;;;;;;;68.20;26.83;;;10.90;96.30;;;;;;4963605;28;20027;-88
2022/01/01 07:45:04;;;;;;;68.95;30.20;;;11.00;96.40;;;;;;4963525;28;20456;-88
2022/01/01 07:47:29;;;;;;;59.10;29.08;;;10.90;96.40;;;;;;4967384;28;20035;-88
2022/01/01 07:49:55;;;;;;;69.57;31.77;;;10.90;96.40;;;;;;4962822;28;20094;-89
2022/01/01 07:52:20;;;;;;;75.05;31.58;;;10.90;96.40;;;;;;4963492;28;20031;-89
2022/01/01 07:54:46;;;;;;;68.68;33.17;;;10.90;96.50;;;;;;4965908;28;20031;-89
2022/01/01 07:57:11;;;;;;;75.80;34.38;;;10.90;96.50;;;;;;4962639;28;20074;-89
2022/01/01 07:59:37;;;;;;;75.20;33.35;;;10.90;96.50;;;;;;4964284;28;20078;-88
2022/01/01 08:02:03;;;;;;;69.50;34.95;;;10.90;96.50;;;;;;4949847;28;20109;-88
2022/01/01 08:04:28;;;;;;;81.70;36.35;;;10.90;96.50;;;;;;4949703;28;20416;-89
2022/01/01 08:06:54;;;;;;;77.82;36.20;;;10.90;96.60;;;;;;4965460;28;20035;-89
2022/01/01 08:09:19;;;;;;;77.32;35.42;;;11.00;96.50;;;;;;4962429;28;20399;-89
2022/01/01 08:11:45;;;;;;;79.05;34.53;;;11.00;96.50;;;;;;4939955;28;20039;-89
2022/01/01 08:14:10;;;;;;;77.82;36.72;;;11.00;96.50;;;;;;4948161;28;20031;-89
2022/01/01 08:16:56;;;;;;;81.53;36.28;;;11.00;96.50;;;;;;4947714;29;20038;-88
2022/01/01 08:19:21;;;;;;;80.13;35.88;;;11.00;96.50;;;;;;4945473;28;20031;-89
2022/01/01 08:21:47;;;;;;;77.47;34.17;;;11.00;96.50;;;;;;4949708;28;20355;-89
2022/01/01 08:24:12;;;;;;;84.45;35.70;;;11.00;96.50;;;;;;4950448;28;20027;-88
2022/01/01 08:26:38;;;;;;;81.28;36.22;;;11.00;96.60;;;;;;4949712;28;20055;-88
2022/01/01 08:29:03;;;;;;;78.85;35.53;;;11.00;96.40;;;;;;4965674;28;20041;-87
2022/01/01 08:31:29;;;;;;;71.03;34.65;;;11.00;96.50;;;;;;4965593;28;20065;-88
2022/01/01 08:33:54;;;;;;;80.32;35.30;;;11.00;96.60;;;;;;4962331;28;20042;-88
2022/01/01 08:36:20;;;;;;;78.20;34.42;;;11.00;96.50;;;;;;4942023;28;20103;-88
2022/01/01 08:38:46;;;;;;;75.00;34.05;;;11.10;96.50;;;;;;4948609;28;20114;-87
2022/01/01 08:41:12;;;;;;;72.07;33.95;;;11.10;96.50;;;;;;4952455;28;20107;-88
2022/01/01 08:43:38;;;;;;;77.93;34.15;;;11.10;96.40;;;;;;4967885;28;20031;-88
2022/01/01 08:46:03;;;;;;;66.28;32.70;;;11.10;96.40;;;;;;4966519;28;20122;-87
2022/01/01 08:48:29;;;;;;;78.38;34.55;;;11.10;96.50;;;;;;4955190;28;20203;-87
2022/01/01 08:50:54;;;;;;;80.38;35.25;;;11.10;96.50;;;;;;4949721;29;20074;-87
2022/01/01 08:53:20;;;;;;;81.82;34.45;;;11.10;96.50;;;;;;4966813;28;20464;-87
2022/01/01 08:55:45;;;;;;;78.80;34.25;;;11.10;96.50;;;;;;4966871;28;20395;-88
2022/01/01 08:58:11;;;;;;;77.07;34.15;;;11.10;96.50;;;;;;4948429;29;20435;-87
2022/01/01 09:00:36;;;;;;;86.70;36.05;;;11.10;96.50;;;;;;4951032;28;20019;-87
2022/01/01 09:03:02;;;;;;;81.65;36.10;;;11.10;96.50;;;;;;4951993;29;20479;-87
2022/01/01 09:05:28;;;;;;;84.05;35.75;;;11.20;96.40;;;;;;4962297;28;20046;-87
2022/01/01 09:07:53;;;;;;;77.10;34.45;;;11.10;96.40;;;;;;4967317;28;20059;-87
2022/01/01 09:10:20;;;;;;;79.97;36.63;;;11.10;96.40;;;;;;4967781;28;20060;-87
2022/01/01 09:12:46;;;;;;;79.85;36.65;;;11.20;96.40;;;;;;4953093;29;20483;-88
2022/01/01 09:15:12;;;;;;;76.93;34.38;;;11.30;96.20;;;;;;4964279;28;20034;-88
2022/01/01 09:17:37;;;;;;;78.63;36.60;;;11.30;96.20;;;;;;4953842;29;20027;-88
2022/01/01 09:20:03;;;;;;;86.80;37.47;;;11.30;96.10;;;;;;4963431;28;20502;-88
2022/01/01 09:22:29;;;;;;;78.25;36.55;;;11.30;96.00;;;;;;4962710;28;20023;-88
2022/01/01 09:24:54;;;;;;;73.03;35.00;;;11.30;95.90;;;;;;4948609;28;20042;-89
2022/01/01 09:27:20;;;;;;;82.22;35.25;;;11.30;95.90;;;;;;4968169;28;20031;-87
2022/01/01 09:29:46;;;;;;;82.93;38.05;;;11.30;95.80;;;;;;4966100;28;20078;-88
2022/01/01 09:32:11;;;;;;;78.72;37.38;;;11.40;95.60;;;;;;4951006;28;20058;-87
2022/01/01 09:34:37;;;;;;;79.47;36.05;;;11.30;95.70;;;;;;4949027;28;20028;-87
2022/01/01 09:37:04;;;;;;;75.97;35.78;;;11.30;95.70;;;;;;4963987;28;20118;-87
2022/01/01 09:39:29;;;;;;;80.13;36.28;;;11.30;95.70;;;;;;4948553;28;20055;-87
2022/01/01 09:41:56;;;;;;;72.15;35.85;;;11.40;95.60;;;;;;4958247;28;20188;-89
2022/01/01 09:44:21;;;;;;;73.38;35.63;;;11.40;95.50;;;;;;4964963;28;20011;-88
2022/01/01 09:46:49;;;;;;;68.10;35.15;;;11.40;95.40;;;;;;4951086;28;20034;-86
2022/01/01 09:49:16;;;;;;;72.57;36.00;;;11.50;95.40;;;;;;4962153;28;20116;-86
2022/01/01 09:51:42;;;;;;;73.57;35.63;;;11.50;95.50;;;;;;4967146;28;20372;-86
2022/01/01 09:54:08;;;;;;;60.35;34.67;;;11.50;95.40;;;;;;4963706;28;20712;-86
2022/01/01 09:56:34;;;;;;;70.22;35.58;;;11.50;95.40;;;;;;4959444;28;20122;-87
2022/01/01 09:58:59;;;;;;;67.80;33.75;;;11.50;95.20;;;;;;4946464;29;20054;-87
2022/01/01 10:01:25;;;;;;;58.33;32.97;;;11.50;95.20;;;;;;4962883;28;20126;-86
2022/01/01 10:03:52;;;;;;;66.93;33.38;;;11.50;95.00;;;;;;4952054;28;20040;-86
2022/01/01 10:06:21;;;;;;;60.72;31.60;;;11.50;94.90;;;;;;4958156;28;20031;-86
2022/01/01 10:09:16;;;;;;;66.07;31.85;;;11.50;94.90;;;;;;4949652;29;20109;-85
2022/01/01 10:11:43;;;;;;;68.15;33.05;;;11.50;94.80;;;;;;4955781;28;20050;-86
2022/01/01 10:14:09;;;;;;;56.35;27.50;;;11.50;94.70;;;;;;4964561;28;20476;-86
2022/01/01 10:16:42;;;;;;;48.92;28.42;;;11.50;94.50;;;;;;4953959;28;20042;-87
2022/01/01 10:19:08;;;;;;;54.90;26.65;;;11.50;94.20;;;;;;4968404;28;20054;-85
2022/01/01 10:21:38;;;;;;;53.55;27.70;;;11.50;94.00;;;;;;4952906;28;20031;-87
2022/01/01 10:24:06;;;;;;;54.67;27.38;;;11.50;94.00;;;;;;4952402;29;20031;-87
2022/01/01 10:29:31;;;;;;;52.78;27.20;;;11.50;93.90;;;;;;4948654;29;20041;-86
2022/01/01 10:32:03;;;;;;;59.20;27.30;;;11.50;94.10;;;;;;4962399;28;20036;-85
2022/01/01 10:34:34;;;;;;;59.08;27.98;;;11.50;94.10;;;;;;4951348;28;20476;-87
2022/01/01 10:37:00;;;;;;;50.47;26.25;;;11.50;94.10;;;;;;4945893;29;20396;-86
2022/01/01 10:39:27;;;;;;;58.35;27.90;;;11.50;94.20;;;;;;4943391;28;20039;-86
2022/01/01 10:42:00;;;;;;;54.53;27.17;;;11.50;94.30;;;;;;4950747;29;20027;-86
2022/01/01 10:44:33;;;;;;;52.40;28.10;;;11.50;94.40;;;;;;4951983;28;20476;-86
2022/01/01 10:47:00;;;;;;;57.17;27.52;;;11.60;94.30;;;;;;4952224;28;20487;-87
2022/01/01 10:52:21;;;;;;;51.15;27.27;;;11.70;94.40;;;;;;4952146;28;20031;-87
2022/01/01 10:54:52;;;;;;;56.55;28.25;;;11.80;94.10;;;;;;4948013;29;20106;-87
2022/01/01 10:57:34;;;;;;;;;;;11.80;94.00;;;;;;4944049;29;20031;-87
2022/01/01 11:00:24;;;;;;;52.83;27.15;;;11.80;94.10;;;;;;4946851;29;19962;-88
2022/01/01 11:02:50;;;;;;;53.92;28.25;;;11.80;94.00;;;;;;4938026;28;20439;-88
2022/01/01 11:05:15;;;;;;;57.80;28.20;;;11.90;94.00;;;;;;4943715;29;20028;-87
2022/01/01 11:07:51;;;;;;;55.30;28.63;;;11.80;93.80;;;;;;4967924;28;20031;-87
2022/01/01 11:10:18;;;;;;;50.25;27.23;;;11.90;94.00;;;;;;4945367;29;20030;-87
2022/01/01 11:12:45;;;;;;;53.03;25.77;;;11.80;94.10;;;;;;4953987;29;20027;-88
2022/01/01 11:15:11;;;;;;;45.78;26.20;;;11.80;94.00;;;;;;4951735;28;20023;-88
2022/01/01 11:17:38;;;;;;;55.63;26.83;;;11.80;93.90;;;;;;4968584;28;20387;-87
2022/01/01 11:20:05;;;;;;;54.80;26.77;;;11.80;94.10;;;;;;4952028;29;20515;-87
2022/01/01 11:22:31;;;;;;;42.03;24.95;;;11.80;94.20;;;;;;4951458;29;20023;-87
2022/01/01 11:24:56;;;;;;;51.13;24.20;;;11.70;94.20;;;;;;4949644;28;20027;-87
2022/01/01 11:27:25;;;;;;;52.03;24.33;;;11.80;94.20;;;;;;4948573;28;20410;-87
2022/01/01 11:29:56;;;;;;;49.60;25.33;;;11.70;94.20;;;;;;4957684;28;20040;-87
2022/01/01 11:32:33;;;;;;;54.73;24.50;;;11.80;94.10;;;;;;4949824;29;20514;-87
2022/01/01 11:34:59;;;;;;;44.17;23.92;;;11.70;94.20;;;;;;4947581;28;20038;-87
2022/01/01 11:37:25;;;;;;;43.90;23.48;;;11.70;94.40;;;;;;4967899;28;20530;-87
2022/01/01 11:39:55;;;;;;;46.58;23.40;;;11.70;94.40;;;;;;4957693;28;20059;-87
2022/01/01 11:42:22;;;;;;;42.42;22.77;;;11.70;94.40;;;;;;4946175;29;20112;-87
2022/01/01 11:44:53;;;;;;;42.20;23.50;;;11.70;94.40;;;;;;4963058;28;20023;-87
2022/01/01 11:47:22;;;;;;;46.78;21.92;;;11.80;94.30;;;;;;4952136;29;20154;-87
2022/01/01 11:49:49;;;;;;;41.67;22.67;;;11.80;94.10;;;;;;4950830;29;20064;-87
2022/01/01 11:52:38;;;;;;;47.00;22.63;;;11.80;94.10;;;;;;4959200;28;20032;-87
2022/01/01 11:55:16;;;;;;;45.22;21.45;;;11.90;94.20;;;;;;4948303;29;20415;-87
2022/01/01 11:57:59;;;;;;;45.22;21.42;;;12.00;94.30;;;;;;4962635;28;20035;-86
2022/01/01 12:00:25;;;;;;;33.58;20.40;;;12.00;94.20;;;;;;4954713;28;20031;-87
2022/01/01 12:03:09;;;;;;;40.72;20.52;;;12.10;94.00;;;;;;4963387;28;20039;-86
2022/01/01 12:05:35;;;;;;;41.35;20.80;;;12.10;93.90;;;;;;4947711;29;20031;-87
2022/01/01 12:08:01;;;;;;;44.10;20.88;;;12.10;93.80;;;;;;4947678;29;20030;-88
2022/01/01 12:10:29;;;;;;;39.35;20.40;;;12.10;93.90;;;;;;4939900;28;20519;-87
2022/01/01 12:13:11;;;;;;;36.38;19.60;;;12.10;93.90;;;;;;4963686;28;20035;-87
2022/01/01 12:15:51;;;;;;;49.60;21.13;;;12.10;94.00;;;;;;4947966;28;20027;-87
2022/01/01 12:18:22;;;;;;;37.25;20.05;;;12.10;94.10;;;;;;4948902;29;20118;-86
2022/01/01 12:20:52;;;;;;;35.65;20.08;;;12.10;93.90;;;;;;4945167;29;20091;-87
2022/01/01 12:23:27;;;;;;;35.78;19.13;;;12.10;94.00;;;;;;4953532;28;20032;-87
2022/01/01 12:25:55;;;;;;;33.30;17.88;;;12.10;94.20;;;;;;4948094;28;20032;-87
2022/01/01 12:28:26;;;;;;;41.78;19.73;;;12.10;94.10;;;;;;4948889;28;20039;-87
2022/01/01 12:31:05;;;;;;;38.60;19.33;;;12.10;94.00;;;;;;4943300;29;21889;-86
2022/01/01 12:33:44;;;;;;;34.92;17.92;;;12.00;94.00;;;;;;4945513;29;20031;-87
2022/01/01 12:36:13;;;;;;;34.33;19.45;;;12.00;94.00;;;;;;4948008;29;20046;-87
2022/01/01 12:38:39;;;;;;;33.55;18.85;;;12.00;94.10;;;;;;4946685;29;20042;-86
2022/01/01 12:41:21;;;;;;;41.15;19.13;;;12.00;94.10;;;;;;4944320;28;20384;-87
2022/01/01 12:44:06;;;;;;;39.55;19.02;;;12.00;94.10;;;;;;4949096;28;20030;-86